El Redomon, Argentina
Current Conditions -  °F | °C
As of 5:00 PM on Thursday 18 Dec 2014 (Local Time) from SUSO Reporting Station
Broken Clouds Broken Clouds  
Wind Chill: 88°   Ceiling: 6700
Heat Index: 88°   Visibility: 6mi
Dew Point: 55°   Wind: 0mph
Humidity: 33%   Direction: NA
Pressure: 29.8"   Gusts: NA
Location:  31.14°S, 58.23°W
Report Text: SUSO 182000Z 00000KT 9999 FEW033 BKN067 31/13 Q1009
Loading
Personal Weather Stations






























Interactive Weather Map New forecast layout! Learn more

10-Day Weather Forecast

Advertisements
Track Severe Weather on mobile